createdAt,value
2022-09-23T00:01:22.971Z,100830.38
2022-09-23T00:03:28.430Z,100828.50
2022-09-23T00:05:32.807Z,100833.28
2022-09-23T00:07:35.812Z,100826.22
2022-09-23T00:09:40.192Z,100830.50
2022-09-23T00:11:43.287Z,100825.09
2022-09-23T00:13:48.882Z,100828.78
2022-09-23T00:15:52.439Z,100819.00
2022-09-23T00:17:55.616Z,100825.31
2022-09-23T00:19:59.035Z,100816.47
2022-09-23T00:22:02.488Z,100818.09
2022-09-23T00:24:05.963Z,100817.13
2022-09-23T00:26:12.612Z,100808.31
2022-09-23T00:28:15.642Z,100812.72
2022-09-23T00:30:18.674Z,100810.03
2022-09-23T00:32:21.671Z,100808.97
2022-09-23T00:34:24.641Z,100806.31
2022-09-23T00:36:28.933Z,100803.69
2022-09-23T00:38:31.996Z,100798.34
2022-09-23T00:40:36.304Z,100800.03
2022-09-23T00:42:47.415Z,100794.75
2022-09-23T00:44:52.455Z,100798.28
2022-09-23T00:46:56.640Z,100800.94
2022-09-23T00:49:01.511Z,100807.78
2022-09-23T00:51:09.611Z,100799.91
2022-09-23T00:53:14.207Z,100796.59
2022-09-23T00:55:19.789Z,100801.75
2022-09-23T00:57:23.744Z,100793.78
2022-09-23T00:59:29.046Z,100786.66
2022-09-23T01:01:32.412Z,100789.31
2022-09-23T01:03:35.490Z,100786.72
2022-09-23T01:05:39.919Z,100787.56
2022-09-23T01:07:42.872Z,100784.13
2022-09-23T01:09:46.713Z,100780.63
2022-09-23T01:11:54.594Z,100785.03
2022-09-23T01:14:03.525Z,100775.34
2022-09-23T01:16:18.399Z,100769.13
2022-09-23T01:18:28.453Z,100765.53
2022-09-23T01:21:10.524Z,100768.88
2022-09-23T01:23:30.638Z,100764.47
2022-09-23T01:25:47.188Z,100769.75
2022-09-23T01:28:03.332Z,100766.31
2022-09-23T01:30:41.442Z,100765.50
2022-09-23T01:32:57.135Z,100754.88
2022-09-23T01:35:07.092Z,100755.69
2022-09-23T01:37:14.117Z,100752.06
2022-09-23T01:39:36.372Z,100754.56
2022-09-23T01:41:49.499Z,100752.72
2022-09-23T01:43:57.204Z,100754.63
2022-09-23T01:46:01.792Z,100756.31
2022-09-23T01:48:13.850Z,100749.34
2022-09-23T01:50:37.867Z,100742.22
2022-09-23T01:52:44.569Z,100746.88
2022-09-23T01:54:53.168Z,100751.34
2022-09-23T01:57:02.945Z,100751.34
2022-09-23T01:59:09.886Z,100745.13
2022-09-23T02:01:20.500Z,100741.56
2022-09-23T02:03:27.529Z,100738.06
2022-09-23T02:05:33.257Z,100738.06
2022-09-23T02:07:39.795Z,100746.06
2022-09-23T02:09:45.310Z,100746.06
2022-09-23T02:11:49.681Z,100738.16
2022-09-23T02:13:55.809Z,100735.50
2022-09-23T02:16:02.126Z,100734.63
2022-09-23T02:18:10.338Z,100730.22
2022-09-23T02:20:15.858Z,100726.81
2022-09-23T02:22:21.924Z,100731.22
2022-09-23T02:24:28.652Z,100724.06
2022-09-23T02:26:35.017Z,100731.09
2022-09-23T02:28:51.917Z,100726.81
2022-09-23T02:31:02.652Z,100732.19
2022-09-23T02:33:09.407Z,100724.19
2022-09-23T02:35:19.158Z,100723.31
2022-09-23T02:37:27.110Z,100729.34
2022-09-23T02:39:34.567Z,100725.81
2022-09-23T02:41:43.589Z,100722.53
2022-09-23T02:43:50.319Z,100726.53
2022-09-23T02:45:53.267Z,100725.72
2022-09-23T02:48:00.649Z,100715.31
2022-09-23T02:50:05.580Z,100716.19
2022-09-23T02:52:09.570Z,100722.34
2022-09-23T02:54:15.548Z,100719.53
2022-09-23T02:56:20.398Z,100706.22
2022-09-23T02:58:23.496Z,100699.97
2022-09-23T03:00:27.058Z,100699.97
2022-09-23T03:02:51.789Z,100700.91
2022-09-23T03:04:59.675Z,100693.69
2022-09-23T03:07:07.192Z,100695.16
2022-09-23T03:09:16.505Z,100694.09
2022-09-23T03:11:19.562Z,100679.06
2022-09-23T03:13:29.976Z,100685.03
2022-09-23T03:15:37.780Z,100674.47
2022-09-23T03:17:46.774Z,100671.66
2022-09-23T03:19:53.684Z,100672.50
2022-09-23T03:22:02.111Z,100667.22
2022-09-23T03:24:08.989Z,100668.84
2022-09-23T03:26:14.901Z,100670.44
2022-09-23T03:28:20.296Z,100658.97
2022-09-23T03:30:23.257Z,100666.03
2022-09-23T03:32:28.362Z,100663.19
2022-09-23T03:34:33.186Z,100658.72
2022-09-23T03:36:53.726Z,100657.91
2022-09-23T03:39:03.932Z,100660.53
2022-09-23T03:41:12.828Z,100659.78
2022-09-23T03:43:15.786Z,100661.09
2022-09-23T03:45:21.268Z,100659.31
2022-09-23T03:47:25.776Z,100662.06
2022-09-23T03:49:29.861Z,100666.59
2022-09-23T03:51:32.761Z,100661.25
2022-09-23T03:53:35.703Z,100657.88
2022-09-23T03:55:39.444Z,100660.69
2022-09-23T03:57:44.682Z,100659.81
2022-09-23T03:59:47.504Z,100654.53
2022-09-23T04:01:50.759Z,100650.00
2022-09-23T04:03:54.297Z,100659.69
2022-09-23T04:05:57.213Z,100645.66
2022-09-23T04:08:00.076Z,100647.31
2022-09-23T04:10:03.115Z,100653.47
2022-09-23T04:12:07.039Z,100648.19
2022-09-23T04:14:12.187Z,100646.56
2022-09-23T04:16:15.553Z,100646.44
2022-09-23T04:18:18.883Z,100641.53
2022-09-23T04:20:21.857Z,100641.41
2022-09-23T04:22:24.839Z,100649.25
2022-09-23T04:24:27.785Z,100652.91
2022-09-23T04:26:30.718Z,100654.72
2022-09-23T04:28:34.286Z,100651.47
2022-09-23T04:30:43.685Z,100650.47
2022-09-23T04:32:46.593Z,100653.66
2022-09-23T04:34:49.517Z,100653.13
2022-09-23T04:36:52.365Z,100658.31
2022-09-23T04:38:55.267Z,100653.16
2022-09-23T04:40:58.209Z,100652.44
2022-09-23T04:43:01.188Z,100655.09
2022-09-23T04:45:05.590Z,100654.31
2022-09-23T04:47:09.872Z,100637.50
2022-09-23T04:49:13.017Z,100637.63
2022-09-23T04:51:19.974Z,100640.22
2022-09-23T04:53:22.886Z,100629.88
2022-09-23T04:55:25.739Z,100629.81
2022-09-23T04:57:29.831Z,100632.34
2022-09-23T04:59:32.697Z,100624.50
2022-09-23T05:01:36.589Z,100620.97
2022-09-23T05:03:41.346Z,100617.59
2022-09-23T05:05:44.212Z,100613.66
2022-09-23T05:07:47.132Z,100610.16
2022-09-23T05:09:50.154Z,100608.91
2022-09-23T05:11:53.139Z,100615.78
2022-09-23T05:13:56.311Z,100606.72
2022-09-23T05:16:00.206Z,100606.72
2022-09-23T05:18:03.139Z,100606.59
2022-09-23T05:20:08.703Z,100600.38
2022-09-23T05:22:11.608Z,100608.22
2022-09-23T05:24:14.899Z,100602.59
2022-09-23T05:26:19.025Z,100608.69
2022-09-23T05:28:22.267Z,100599.66
2022-09-23T05:30:25.198Z,100597.88
2022-09-23T05:32:28.096Z,100605.06
2022-09-23T05:34:32.292Z,100592.66
2022-09-23T05:36:39.187Z,100605.81
2022-09-23T05:38:42.304Z,100617.31
2022-09-23T05:40:45.283Z,100619.69
2022-09-23T05:42:48.117Z,100617.88
2022-09-23T05:44:52.551Z,100620.25
2022-09-23T05:46:55.609Z,100615.66
2022-09-23T05:49:02.702Z,100616.38
2022-09-23T05:51:12.772Z,100615.09
2022-09-23T05:53:17.221Z,100614.09
2022-09-23T05:55:20.464Z,100623.53
2022-09-23T05:57:23.456Z,100619.13
2022-09-23T05:59:26.422Z,100619.81
2022-09-23T06:01:32.230Z,100618.69
2022-09-23T06:03:35.343Z,100614.56
2022-09-23T06:05:38.242Z,100616.72
2022-09-23T06:07:41.158Z,100616.06
2022-09-23T06:09:45.504Z,100612.59
2022-09-23T06:11:48.450Z,100612.84
2022-09-23T06:13:56.007Z,100608.41
2022-09-23T06:15:59.235Z,100608.53
2022-09-23T06:18:02.602Z,100593.84
2022-09-23T06:20:06.131Z,100603.03
2022-09-23T06:22:09.153Z,100593.78
2022-09-23T06:24:17.568Z,100593.34
2022-09-23T06:26:23.433Z,100595.88
2022-09-23T06:28:26.289Z,100589.84
2022-09-23T06:30:29.816Z,100586.47
2022-09-23T06:32:33.110Z,100582.28
2022-09-23T06:34:47.988Z,100589.31
2022-09-23T06:36:53.852Z,100586.78
2022-09-23T06:38:57.464Z,100590.09
2022-09-23T06:41:01.387Z,100583.13
2022-09-23T06:43:05.712Z,100581.75
2022-09-23T06:45:11.787Z,100582.59
2022-09-23T06:47:14.691Z,100576.84
2022-09-23T06:49:17.646Z,100572.03
2022-09-23T06:51:21.688Z,100574.97
2022-09-23T06:53:24.753Z,100578.53
2022-09-23T06:55:28.430Z,100572.69
2022-09-23T06:57:31.493Z,100578.72
2022-09-23T06:59:36.174Z,100578.00
2022-09-23T07:01:39.328Z,100583.53
2022-09-23T07:03:44.354Z,100585.38
2022-09-23T07:05:47.454Z,100569.81
2022-09-23T07:07:50.736Z,100572.81
2022-09-23T07:09:53.817Z,100574.91
2022-09-23T07:11:56.770Z,100574.22
2022-09-23T07:13:59.664Z,100574.63
2022-09-23T07:16:06.966Z,100568.47
2022-09-23T07:18:12.253Z,100570.63
2022-09-23T07:20:17.978Z,100577.81
2022-09-23T07:22:21.622Z,100571.56
2022-09-23T07:24:24.704Z,100574.31
2022-09-23T07:26:30.975Z,100570.19
2022-09-23T07:28:33.936Z,100571.78
2022-09-23T07:30:38.677Z,100577.72
2022-09-23T07:32:48.754Z,100576.44
2022-09-23T07:34:53.915Z,100582.72
2022-09-23T07:36:57.395Z,100584.34
2022-09-23T07:39:03.382Z,100583.88
2022-09-23T07:41:10.857Z,100575.28
2022-09-23T07:43:13.939Z,100580.66
2022-09-23T07:45:16.914Z,100577.09
2022-09-23T07:47:20.170Z,100584.00
2022-09-23T07:49:24.921Z,100585.91
2022-09-23T07:51:34.699Z,100583.00
2022-09-23T07:53:40.034Z,100584.41
2022-09-23T07:55:43.163Z,100581.22
2022-09-23T07:57:46.134Z,100578.91
2022-09-23T07:59:49.140Z,100573.91
2022-09-23T08:01:54.093Z,100577.53
2022-09-23T08:03:58.009Z,100590.59
2022-09-23T08:06:13.319Z,100580.84
2022-09-23T08:08:17.291Z,100587.03
2022-09-23T08:10:21.084Z,100587.00
2022-09-23T08:12:23.973Z,100576.06
2022-09-23T08:14:27.509Z,100589.78
2022-09-23T08:16:30.514Z,100580.56
2022-09-23T08:18:33.866Z,100579.13
2022-09-23T08:20:47.366Z,100585.25
2022-09-23T08:22:53.726Z,100577.34
2022-09-23T08:24:56.942Z,100582.59
2022-09-23T08:27:00.084Z,100580.06
2022-09-23T08:29:03.526Z,100581.06
2022-09-23T08:31:09.422Z,100583.88
2022-09-23T08:33:13.015Z,100577.53
2022-09-23T08:35:16.434Z,100575.22
2022-09-23T08:37:19.416Z,100578.03
2022-09-23T08:39:23.936Z,100582.72
2022-09-23T08:41:34.669Z,100584.00
2022-09-23T08:43:38.146Z,100588.88
2022-09-23T08:45:42.142Z,100581.97
2022-09-23T08:47:48.211Z,100577.59
2022-09-23T08:50:00.842Z,100576.44
2022-09-23T08:52:08.735Z,100570.88
2022-09-23T08:54:12.168Z,100583.28
2022-09-23T08:56:17.856Z,100576.00
2022-09-23T08:58:43.906Z,100577.91
2022-09-23T09:00:53.987Z,100578.13
2022-09-23T09:02:56.961Z,100573.44
2022-09-23T09:05:03.609Z,100572.59
2022-09-23T09:07:36.670Z,100568.63
2022-09-23T09:09:43.952Z,100569.03
2022-09-23T09:11:49.701Z,100577.72
2022-09-23T09:13:58.717Z,100569.16
2022-09-23T09:16:23.913Z,100565.53
2022-09-23T09:18:43.390Z,100571.09
2022-09-23T09:20:51.706Z,100568.41
2022-09-23T09:22:57.587Z,100568.72
2022-09-23T09:25:06.370Z,100570.22
2022-09-23T09:27:13.453Z,100563.38
2022-09-23T09:29:36.120Z,100558.88
2022-09-23T09:31:42.048Z,100556.75
2022-09-23T09:33:48.389Z,100564.88
2022-09-23T09:36:14.790Z,100561.34
2022-09-23T09:38:21.995Z,100557.84
2022-09-23T09:40:25.597Z,100563.81
2022-09-23T09:42:39.986Z,100570.34
2022-09-23T09:44:45.669Z,100567.25
2022-09-23T09:47:03.988Z,100564.91
2022-09-23T09:49:12.386Z,100561.34
2022-09-23T09:51:21.504Z,100557.16
2022-09-23T09:53:26.346Z,100553.63
2022-09-23T09:55:30.554Z,100552.56
2022-09-23T09:57:39.446Z,100556.06
2022-09-23T09:59:44.089Z,100557.59
2022-09-23T10:01:47.248Z,100551.59
2022-09-23T10:03:55.516Z,100555.56
2022-09-23T10:06:01.565Z,100549.47
2022-09-23T10:08:24.716Z,100549.00
2022-09-23T10:10:32.874Z,100544.13
2022-09-23T10:12:46.010Z,100546.66
2022-09-23T10:14:51.638Z,100546.53
2022-09-23T10:17:05.668Z,100549.16
2022-09-23T10:19:23.986Z,100546.78
2022-09-23T10:21:34.621Z,100542.59
2022-09-23T10:23:41.102Z,100544.84
2022-09-23T10:25:44.629Z,100540.16
2022-09-23T10:27:49.021Z,100540.63
2022-09-23T10:29:52.323Z,100548.78
2022-09-23T10:32:25.705Z,100541.38
2022-09-23T10:34:28.962Z,100538.69
2022-09-23T10:36:33.752Z,100544.09
2022-09-23T10:38:36.732Z,100531.81
2022-09-23T10:40:58.154Z,100533.78
2022-09-23T10:43:37.597Z,100534.44
2022-09-23T10:45:58.660Z,100539.19
2022-09-23T10:48:07.780Z,100528.59
2022-09-23T10:50:16.655Z,100531.16
2022-09-23T10:52:33.003Z,100526.66
2022-09-23T10:54:51.886Z,100523.16
2022-09-23T10:57:02.110Z,100524.06
2022-09-23T10:59:30.318Z,100514.72
2022-09-23T11:01:40.731Z,100510.47
2022-09-23T11:03:58.380Z,100518.06
2022-09-23T11:06:12.845Z,100517.75
2022-09-23T11:08:28.557Z,100507.94
2022-09-23T11:10:57.974Z,100512.72
2022-09-23T11:13:08.047Z,100510.78
2022-09-23T11:15:28.733Z,100503.69
2022-09-23T11:18:26.054Z,100492.66
2022-09-23T11:20:39.399Z,100493.25
2022-09-23T11:22:54.352Z,100495.66
2022-09-23T11:25:18.516Z,100490.16
2022-09-23T11:27:32.178Z,100494.69
2022-09-23T11:30:09.334Z,100490.16
2022-09-23T11:32:31.142Z,100490.16
2022-09-23T11:34:45.664Z,100486.38
2022-09-23T11:36:54.869Z,100481.28
2022-09-23T11:39:26.596Z,100482.88
2022-09-23T11:41:31.636Z,100474.63
2022-09-23T11:43:37.682Z,100478.56
2022-09-23T11:45:43.362Z,100472.38
2022-09-23T11:47:51.701Z,100473.66
2022-09-23T11:50:01.230Z,100475.41
2022-09-23T11:52:09.976Z,100460.31
2022-09-23T11:54:20.774Z,100462.38
2022-09-23T11:56:34.910Z,100465.81
2022-09-23T11:58:42.368Z,100459.16
2022-09-23T12:00:59.028Z,100474.00
2022-09-23T12:03:10.649Z,100461.19
2022-09-23T12:05:17.273Z,100452.75
2022-09-23T12:07:25.191Z,100459.44
2022-09-23T12:09:56.654Z,100453.91
2022-09-23T12:12:01.404Z,100450.25
2022-09-23T12:14:14.059Z,100452.13
2022-09-23T12:16:58.908Z,100444.63
2022-09-23T12:19:15.048Z,100436.69
2022-09-23T12:21:49.661Z,100444.47
2022-09-23T12:24:10.821Z,100452.94
2022-09-23T12:26:18.223Z,100439.94
2022-09-23T12:28:24.443Z,100441.16
2022-09-23T12:30:29.803Z,100447.94
2022-09-23T12:32:34.526Z,100440.63
2022-09-23T12:34:47.906Z,100439.34
2022-09-23T12:36:51.022Z,100434.59
2022-09-23T12:38:55.773Z,100428.56
2022-09-23T12:40:58.818Z,100434.88
2022-09-23T12:43:02.395Z,100431.19
2022-09-23T12:45:35.066Z,100433.09
2022-09-23T12:47:41.823Z,100430.13
2022-09-23T12:49:46.213Z,100438.59
2022-09-23T12:52:21.910Z,100429.34
2022-09-23T12:54:26.135Z,100423.53
2022-09-23T12:56:58.309Z,100425.53
2022-09-23T12:59:03.493Z,100419.97
2022-09-23T13:01:10.670Z,100409.56
2022-09-23T13:03:31.839Z,100417.75
2022-09-23T13:06:02.020Z,100418.56
2022-09-23T13:08:08.943Z,100417.56
2022-09-23T13:10:17.566Z,100419.50
2022-09-23T13:12:26.449Z,100410.19
2022-09-23T13:14:32.636Z,100407.75
2022-09-23T13:16:38.551Z,100410.91
2022-09-23T13:18:59.651Z,100402.94
2022-09-23T13:21:17.495Z,100403.06
2022-09-23T13:23:23.898Z,100392.78
2022-09-23T13:25:28.181Z,100391.84
2022-09-23T13:27:33.032Z,100391.94
2022-09-23T13:29:39.681Z,100388.19
2022-09-23T13:31:43.912Z,100392.09
2022-09-23T13:33:50.345Z,100396.13
2022-09-23T13:35:57.288Z,100383.22
2022-09-23T13:38:20.748Z,100392.00
2022-09-23T13:40:27.221Z,100383.09
2022-09-23T13:42:31.171Z,100391.94
2022-09-23T13:44:34.188Z,100384.97
2022-09-23T13:46:43.132Z,100386.41
2022-09-23T13:48:48.377Z,100381.81
2022-09-23T13:50:53.413Z,100385.59
2022-09-23T13:52:58.836Z,100385.94
2022-09-23T13:55:03.143Z,100389.50
2022-09-23T13:57:05.995Z,100396.09
2022-09-23T13:59:22.815Z,100397.66
2022-09-23T14:01:36.085Z,100384.75
2022-09-23T14:03:40.397Z,100387.91
2022-09-23T14:05:43.618Z,100382.31
2022-09-23T14:07:46.538Z,100378.16
2022-09-23T14:09:51.423Z,100381.81
2022-09-23T14:11:56.538Z,100378.53
2022-09-23T14:14:07.673Z,100385.41
2022-09-23T14:16:12.644Z,100388.59
2022-09-23T14:18:18.814Z,100382.44
2022-09-23T14:20:22.776Z,100379.63
2022-09-23T14:22:27.431Z,100378.13
2022-09-23T14:24:33.136Z,100380.03
2022-09-23T14:26:36.011Z,100379.44
2022-09-23T14:28:40.225Z,100374.66
2022-09-23T14:30:46.115Z,100378.91
2022-09-23T14:32:49.158Z,100374.16
2022-09-23T14:34:53.418Z,100379.66
2022-09-23T14:37:13.950Z,100375.84
2022-09-23T14:39:17.124Z,100374.22
2022-09-23T14:41:23.943Z,100372.25
2022-09-23T14:43:28.393Z,100376.25
2022-09-23T14:45:34.646Z,100374.28
2022-09-23T14:47:37.695Z,100366.75
2022-09-23T14:50:00.579Z,100364.13
2022-09-23T14:52:07.256Z,100365.75
2022-09-23T14:54:33.449Z,100356.78
2022-09-23T14:56:45.300Z,100366.06
2022-09-23T14:58:54.818Z,100362.59
2022-09-23T15:01:00.515Z,100357.03
2022-09-23T15:03:05.766Z,100363.84
2022-09-23T15:05:17.489Z,100356.44
2022-09-23T15:07:23.214Z,100354.13
2022-09-23T15:09:28.771Z,100352.88
2022-09-23T15:11:31.857Z,100354.78
2022-09-23T15:13:39.518Z,100352.13
2022-09-23T15:15:43.597Z,100354.44
2022-09-23T15:17:48.202Z,100349.22
2022-09-23T15:19:55.185Z,100346.53
2022-09-23T15:21:58.444Z,100345.81
2022-09-23T15:24:01.321Z,100347.31
2022-09-23T15:26:10.813Z,100340.84
2022-09-23T15:28:23.707Z,100342.47
2022-09-23T15:30:27.012Z,100349.94
2022-09-23T15:32:29.916Z,100342.78
2022-09-23T15:34:34.700Z,100346.72
2022-09-23T15:36:38.271Z,100347.56
2022-09-23T15:38:43.192Z,100356.19
2022-09-23T15:40:46.216Z,100350.28
2022-09-23T15:42:51.641Z,100360.34
2022-09-23T15:44:54.747Z,100356.16
2022-09-23T15:46:59.212Z,100363.81
2022-09-23T15:49:04.761Z,100362.72
2022-09-23T15:51:15.463Z,100354.53
2022-09-23T15:53:20.771Z,100359.97
2022-09-23T15:55:23.856Z,100353.59
2022-09-23T15:57:26.979Z,100358.25
2022-09-23T15:59:30.942Z,100356.69
2022-09-23T16:01:36.349Z,100357.03
2022-09-23T16:03:39.394Z,100353.94
2022-09-23T16:05:46.664Z,100351.81
2022-09-23T16:07:52.251Z,100352.97
2022-09-23T16:09:55.345Z,100348.28
2022-09-23T16:11:58.308Z,100346.88
2022-09-23T16:14:01.630Z,100350.72
2022-09-23T16:16:08.504Z,100352.88
2022-09-23T16:18:12.731Z,100351.38
2022-09-23T16:20:17.875Z,100349.88
2022-09-23T16:22:21.148Z,100357.16
2022-09-23T16:24:28.170Z,100356.94
2022-09-23T16:26:32.853Z,100350.72
2022-09-23T16:28:35.797Z,100354.78
2022-09-23T16:30:38.761Z,100347.72
2022-09-23T16:32:41.956Z,100354.69
2022-09-23T16:34:46.285Z,100349.88
2022-09-23T16:36:49.238Z,100345.50
2022-09-23T16:38:52.165Z,100347.97
2022-09-23T16:40:59.556Z,100356.06
2022-09-23T16:43:05.335Z,100349.66
2022-09-23T16:45:09.888Z,100349.25
2022-09-23T16:47:13.044Z,100346.69
2022-09-23T16:49:16.028Z,100343.91
2022-09-23T16:51:20.529Z,100350.72
2022-09-23T16:53:23.617Z,100351.28
2022-09-23T16:55:27.344Z,100351.81
2022-09-23T16:57:31.825Z,100348.94
2022-09-23T16:59:48.644Z,100341.88
2022-09-23T17:02:09.187Z,100346.28
2022-09-23T17:04:12.485Z,100346.16
2022-09-23T17:06:16.202Z,100354.16
2022-09-23T17:08:19.468Z,100353.94
2022-09-23T17:10:22.494Z,100356.50
2022-09-23T17:12:28.216Z,100354.38
2022-09-23T17:14:32.553Z,100356.28
2022-09-23T17:16:36.322Z,100355.44
2022-09-23T17:18:40.382Z,100355.44
2022-09-23T17:20:43.307Z,100352.31
2022-09-23T17:22:46.187Z,100350.53
2022-09-23T17:24:49.069Z,100347.97
2022-09-23T17:26:53.475Z,100341.97
2022-09-23T17:28:57.975Z,100353.28
2022-09-23T17:31:04.091Z,100343.47
2022-09-23T17:33:10.792Z,100342.59
2022-09-23T17:35:13.747Z,100348.38
2022-09-23T17:37:16.711Z,100351.44
2022-09-23T17:39:19.710Z,100356.31
2022-09-23T17:41:22.740Z,100359.34
2022-09-23T17:43:25.916Z,100355.41
2022-09-23T17:45:29.946Z,100353.34
2022-09-23T17:47:37.319Z,100356.28
2022-09-23T17:49:42.939Z,100353.28
2022-09-23T17:51:46.113Z,100348.31
2022-09-23T17:53:49.968Z,100349.13
2022-09-23T17:55:57.049Z,100345.53
2022-09-23T17:58:01.469Z,100343.03
2022-09-23T18:00:05.456Z,100345.25
2022-09-23T18:02:15.814Z,100336.41
2022-09-23T18:04:20.739Z,100338.88
2022-09-23T18:06:27.469Z,100337.44
2022-09-23T18:08:31.499Z,100331.66
2022-09-23T18:10:34.435Z,100331.81
2022-09-23T18:12:37.429Z,100325.94
2022-09-23T18:14:40.349Z,100333.19
2022-09-23T18:16:44.779Z,100322.81
2022-09-23T18:18:51.328Z,100326.91
2022-09-23T18:21:01.226Z,100327.09
2022-09-23T18:23:04.462Z,100332.44
2022-09-23T18:25:22.993Z,100332.34
2022-09-23T18:27:31.425Z,100341.53
2022-09-23T18:29:35.109Z,100341.66
2022-09-23T18:31:39.141Z,100346.13
2022-09-23T18:33:42.615Z,100347.16
2022-09-23T18:35:45.929Z,100349.47
2022-09-23T18:37:50.454Z,100338.66
2022-09-23T18:39:53.564Z,100341.41
2022-09-23T18:41:56.715Z,100343.97
2022-09-23T18:44:00.254Z,100339.56
2022-09-23T18:46:07.105Z,100336.16
2022-09-23T18:48:28.106Z,100338.88
2022-09-23T18:50:44.843Z,100337.19
2022-09-23T18:52:50.251Z,100340.81
2022-09-23T18:54:55.828Z,100349.00
2022-09-23T18:56:59.293Z,100347.66
2022-09-23T18:59:02.344Z,100336.94
2022-09-23T19:01:11.663Z,100331.31
2022-09-23T19:03:14.942Z,100334.94
2022-09-23T19:05:24.777Z,100341.09
2022-09-23T19:07:27.940Z,100334.94
2022-09-23T19:09:30.926Z,100341.28
2022-09-23T19:11:36.703Z,100347.06
2022-09-23T19:13:39.807Z,100349.00
2022-09-23T19:15:43.453Z,100349.56
2022-09-23T19:17:46.821Z,100347.38
2022-09-23T19:19:50.052Z,100342.91
2022-09-23T19:21:54.768Z,100342.03
2022-09-23T19:24:00.581Z,100338.63
2022-09-23T19:26:09.413Z,100346.78
2022-09-23T19:28:13.635Z,100351.09
2022-09-23T19:30:18.839Z,100355.53
2022-09-23T19:32:25.992Z,100353.28
2022-09-23T19:34:37.864Z,100357.94
2022-09-23T19:36:42.605Z,100352.50
2022-09-23T19:38:45.877Z,100348.03
2022-09-23T19:40:52.201Z,100352.78
2022-09-23T19:42:55.183Z,100341.00
2022-09-23T19:44:59.467Z,100335.47
2022-09-23T19:47:02.980Z,100336.16
2022-09-23T19:49:07.586Z,100334.34
2022-09-23T19:51:10.685Z,100340.53
2022-09-23T19:53:13.783Z,100339.78
2022-09-23T19:55:16.882Z,100334.66
2022-09-23T19:57:20.243Z,100333.69
2022-09-23T19:59:23.146Z,100330.94
2022-09-23T20:01:29.306Z,100333.03
2022-09-23T20:03:33.491Z,100335.59
2022-09-23T20:05:36.458Z,100327.69
2022-09-23T20:07:41.373Z,100334.09
2022-09-23T20:09:44.406Z,100329.50
2022-09-23T20:11:47.467Z,100330.47
2022-09-23T20:13:58.378Z,100333.28
2022-09-23T20:16:03.630Z,100330.09
2022-09-23T20:18:10.127Z,100330.19
2022-09-23T20:20:15.714Z,100325.97
2022-09-23T20:22:32.947Z,100328.75
2022-09-23T20:24:36.862Z,100330.91
2022-09-23T20:26:58.038Z,100326.81
2022-09-23T20:29:01.567Z,100325.56
2022-09-23T20:31:08.991Z,100325.47
2022-09-23T20:33:15.147Z,100323.09
2022-09-23T20:35:18.035Z,100325.66
2022-09-23T20:37:21.797Z,100317.59
2022-09-23T20:39:24.777Z,100323.94
2022-09-23T20:41:27.834Z,100319.59
2022-09-23T20:43:34.576Z,100319.69
2022-09-23T20:45:37.485Z,100318.03
2022-09-23T20:47:40.532Z,100319.28
2022-09-23T20:49:46.287Z,100311.47
2022-09-23T20:51:49.818Z,100304.66
2022-09-23T20:53:54.002Z,100317.13
2022-09-23T20:56:00.928Z,100304.97
2022-09-23T20:58:04.062Z,100315.78
2022-09-23T21:00:09.147Z,100314.25
2022-09-23T21:02:12.118Z,100316.31
2022-09-23T21:04:15.101Z,100311.09
2022-09-23T21:06:20.054Z,100312.16
2022-09-23T21:08:24.565Z,100314.97
2022-09-23T21:10:27.499Z,100321.22
2022-09-23T21:12:31.792Z,100322.94
2022-09-23T21:14:35.081Z,100316.09
2022-09-23T21:16:38.185Z,100314.28
2022-09-23T21:18:41.931Z,100313.44
2022-09-23T21:20:45.067Z,100317.72
2022-09-23T21:22:52.081Z,100312.50
2022-09-23T21:25:26.238Z,100316.09
2022-09-23T21:27:18.156Z,100306.41
2022-09-23T21:29:21.107Z,100312.00
2022-09-23T21:31:26.083Z,100305.13
2022-09-23T21:33:30.427Z,100299.91
2022-09-23T21:35:33.313Z,100307.13
2022-09-23T21:37:36.698Z,100307.97
2022-09-23T21:39:41.000Z,100311.50
2022-09-23T21:41:43.940Z,100305.41
2022-09-23T21:43:48.321Z,100308.84
2022-09-23T21:45:56.941Z,100314.06
2022-09-23T21:48:01.419Z,100314.34
2022-09-23T21:50:04.894Z,100307.13
2022-09-23T21:52:10.168Z,100301.81
2022-09-23T21:54:15.822Z,100313.47
2022-09-23T21:56:21.509Z,100302.84
2022-09-23T21:58:26.635Z,100312.63
2022-09-23T22:00:29.916Z,100308.06
2022-09-23T22:02:32.935Z,100315.19
2022-09-23T22:04:35.925Z,100309.03
2022-09-23T22:06:40.542Z,100312.44
2022-09-23T22:08:44.759Z,100317.59
2022-09-23T22:10:47.641Z,100314.84
2022-09-23T22:12:50.999Z,100308.84
2022-09-23T22:14:53.878Z,100309.97
2022-09-23T22:16:58.931Z,100311.25
2022-09-23T22:19:05.176Z,100306.03
2022-09-23T22:21:10.676Z,100302.53
2022-09-23T22:23:13.883Z,100295.31
2022-09-23T22:25:16.944Z,100296.38
2022-09-23T22:27:21.002Z,100307.84
2022-09-23T22:29:42.610Z,100307.66
2022-09-23T22:32:03.424Z,100300.22
2022-09-23T22:34:06.420Z,100300.31
2022-09-23T22:36:11.445Z,100302.69
2022-09-23T22:38:14.403Z,100310.56
2022-09-23T22:40:17.863Z,100301.69
2022-09-23T22:42:22.514Z,100304.06
2022-09-23T22:44:27.086Z,100310.22
2022-09-23T22:46:32.839Z,100306.63
2022-09-23T22:48:35.767Z,100307.13
2022-09-23T22:50:40.359Z,100307.38
2022-09-23T22:52:44.091Z,100310.22
2022-09-23T22:54:46.932Z,100316.22
2022-09-23T22:56:50.888Z,100305.78
2022-09-23T22:58:55.220Z,100302.59
2022-09-23T23:00:59.862Z,100294.31
2022-09-23T23:03:02.785Z,100296.88
2022-09-23T23:05:06.721Z,100289.78
2022-09-23T23:07:09.879Z,100298.63
2022-09-23T23:09:15.789Z,100288.91
2022-09-23T23:11:18.715Z,100287.22
2022-09-23T23:13:21.719Z,100283.34
2022-09-23T23:15:24.585Z,100281.81
2022-09-23T23:17:29.998Z,100292.94
2022-09-23T23:19:33.107Z,100276.13
2022-09-23T23:21:37.321Z,100284.28
2022-09-23T23:23:41.194Z,100273.84
2022-09-23T23:25:44.409Z,100271.19
2022-09-23T23:27:47.331Z,100270.25
2022-09-23T23:29:50.257Z,100261.34
2022-09-23T23:31:53.322Z,100268.34
2022-09-23T23:33:58.209Z,100269.31
2022-09-23T23:36:01.167Z,100267.25
2022-09-23T23:38:06.571Z,100272.47
2022-09-23T23:40:37.712Z,100270.72
2022-09-23T23:42:40.782Z,100269.13
2022-09-23T23:44:43.814Z,100266.47
2022-09-23T23:46:46.811Z,100269.13
2022-09-23T23:48:49.745Z,100258.50
2022-09-23T23:50:54.694Z,100259.38
2022-09-23T23:52:57.738Z,100265.97
2022-09-23T23:55:00.550Z,100264.53
2022-09-23T23:57:03.503Z,100266.06
2022-09-23T23:59:06.478Z,100271.28
